Time;durP1;ratioP1;P1;durP2;ratioP2;P2;SDS_P1;SDS_P2;PMS_P1;PMS_P2;Temp;Humidity;BMP_temperature;BMP_pressure;BME280_temperature;BME280_humidity;BME280_pressure;Samples;Min_cycle;Max_cycle;Signal;HPM_P1;HPM_P2
2023/02/17 00:02:09;;;;;;;;;;;;;;;;;;5078800;28;19912;-51
2023/02/17 00:04:35;;;;;;;;;;;;;;;;;;5072398;28;19919;-51
2023/02/17 00:07:01;;;;;;;;;;;;;;;;;;5072358;28;20289;-50
2023/02/17 00:09:27;;;;;;;;;;;;;;;;;;5072434;28;20398;-48
2023/02/17 00:11:53;;;;;;;;;;;;;;;;;;5072373;28;19973;-50
2023/02/17 00:14:19;;;;;;;;;;;;;;;;;;5073331;28;19912;-48
2023/02/17 00:16:45;;;;;;;;;;;;;;;;;;5067828;28;19916;-50
2023/02/17 00:19:22;;;;;;;;;;;;;;;;;;5091959;28;19916;-49
2023/02/17 00:21:48;;;;;;;;;;;;;;;;;;5092132;28;19912;-48
2023/02/17 00:24:14;;;;;;;;;;;;;;;;;;5090703;28;19916;-48
2023/02/17 00:26:40;;;;;;;;;;;;;;;;;;5091833;28;19920;-46
2023/02/17 00:29:06;;;;;;;;;;;;;;;;;;5090513;28;20358;-48
2023/02/17 00:31:32;;;;;;;;;;;;;;;;;;5061782;28;19963;-50
2023/02/17 00:33:58;;;;;;;;;;;;;;;;;;5072080;28;19965;-49
2023/02/17 00:36:24;;;;;;;;;;;;;;;;;;5071803;28;19946;-49
2023/02/17 00:38:50;;;;;;;;;;;;;;;;;;5072069;28;19912;-48
2023/02/17 00:41:16;;;;;;;;;;;;;;;;;;5072052;28;20437;-49
2023/02/17 00:43:42;;;;;;;;;;;;;;;;;;5073049;28;19920;-50
2023/02/17 00:46:08;;;;;;;;;;;;;;;;;;5080032;28;20299;-49
2023/02/17 00:48:34;;;;;;;;;;;;;;;;;;5079085;28;20395;-48
2023/02/17 00:50:59;;;;;;;;;;;;;;;;;;5072857;28;20003;-48
2023/02/17 00:53:25;;;;;;;;;;;;;;;;;;5087825;28;19912;-49
2023/02/17 00:55:51;;;;;;;;;;;;;;;;;;5091975;28;20296;-50
2023/02/17 00:58:17;;;;;;;;;;;;;;;;;;5091641;28;20430;-47
2023/02/17 01:00:43;;;;;;;;;;;;;;;;;;5079697;28;19999;-47
2023/02/17 01:03:09;;;;;;;;;;;;;;;;;;5071775;28;19967;-48
2023/02/17 01:05:35;;;;;;;;;;;;;;;;;;5075964;28;19916;-48
2023/02/17 01:08:01;;;;;;;;;;;;;;;;;;5075560;28;19917;-50
2023/02/17 01:10:27;;;;;;;;;;;;;;;;;;5076174;28;19908;-48
2023/02/17 01:12:53;;;;;;;;;;;;;;;;;;5095276;28;19912;-47
2023/02/17 01:15:19;;;;;;;;;;;;;;;;;;5092044;28;19919;-48
2023/02/17 01:17:45;;;;;;;;;;;;;;;;;;5075546;28;20335;-49
2023/02/17 01:20:11;;;;;;;;;;;;;;;;;;5075497;28;19915;-49
2023/02/17 01:22:36;;;;;;;;;;;;;;;;;;5075464;28;19965;-49
2023/02/17 01:25:02;;;;;;;;;;;;;;;;;;5057549;28;20015;-49
2023/02/17 01:27:28;;;;;;;;;;;;;;;;;;5075007;28;20003;-48
2023/02/17 01:29:54;;;;;;;;;;;;;;;;;;5076440;28;19916;-48
2023/02/17 01:32:20;;;;;;;;;;;;;;;;;;5075254;28;19916;-49
2023/02/17 01:34:47;;;;;;;;;;;;;;;;;;5075083;28;20287;-52
2023/02/17 01:37:14;;;;;;;;;;;;;;;;;;5076354;28;19913;-48
2023/02/17 01:39:40;;;;;;;;;;;;;;;;;;5075152;28;20281;-50
2023/02/17 01:42:05;;;;;;;;;;;;;;;;;;5074992;28;19974;-50
2023/02/17 01:44:31;;;;;;;;;;;;;;;;;;5074983;28;19917;-49
2023/02/17 01:46:57;;;;;;;;;;;;;;;;;;5076020;28;19958;-49
2023/02/17 01:49:23;;;;;;;;;;;;;;;;;;5074989;28;19918;-49
2023/02/17 01:51:49;;;;;;;;;;;;;;;;;;5086334;28;19912;-48
2023/02/17 01:54:15;;;;;;;;;;;;;;;;;;5090843;28;19977;-49
2023/02/17 01:56:41;;;;;;;;;;;;;;;;;;5076280;28;19959;-49
2023/02/17 01:59:07;;;;;;;;;;;;;;;;;;5094817;28;20356;-49
2023/02/17 02:01:33;;;;;;;;;;;;;;;;;;5080277;28;20288;-49
2023/02/17 02:03:59;;;;;;;;;;;;;;;;;;5074530;28;20387;-49
2023/02/17 02:06:25;;;;;;;;;;;;;;;;;;5075501;28;19934;-51
2023/02/17 02:08:51;;;;;;;;;;;;;;;;;;5075675;28;19917;-54
2023/02/17 02:11:16;;;;;;;;;;;;;;;;;;5076326;28;19916;-52
2023/02/17 02:13:42;;;;;;;;;;;;;;;;;;5074596;28;19913;-48
2023/02/17 02:16:08;;;;;;;;;;;;;;;;;;5081902;28;20099;-50
2023/02/17 02:18:34;;;;;;;;;;;;;;;;;;5093832;28;20070;-50
2023/02/17 02:21:00;;;;;;;;;;;;;;;;;;5094500;28;19908;-49
2023/02/17 02:23:26;;;;;;;;;;;;;;;;;;5076174;28;20396;-50
2023/02/17 02:25:52;;;;;;;;;;;;;;;;;;5073769;28;19912;-48
2023/02/17 02:28:18;;;;;;;;;;;;;;;;;;5092517;28;19923;-51
2023/02/17 02:30:44;;;;;;;;;;;;;;;;;;5088544;28;19912;-49
2023/02/17 02:33:10;;;;;;;;;;;;;;;;;;5057133;28;19912;-49
2023/02/17 02:35:36;;;;;;;;;;;;;;;;;;5073931;28;20357;-51
2023/02/17 02:38:01;;;;;;;;;;;;;;;;;;5074201;28;19917;-50
2023/02/17 02:40:27;;;;;;;;;;;;;;;;;;5073861;28;19990;-50
2023/02/17 02:42:53;;;;;;;;;;;;;;;;;;5075023;28;20450;-49
2023/02/17 02:45:19;;;;;;;;;;;;;;;;;;5075443;28;19931;-54
2023/02/17 02:47:45;;;;;;;;;;;;;;;;;;5091956;28;19921;-52
2023/02/17 02:50:11;;;;;;;;;;;;;;;;;;5094073;28;19973;-51
2023/02/17 02:52:37;;;;;;;;;;;;;;;;;;5085170;28;19912;-48
2023/02/17 02:55:03;;;;;;;;;;;;;;;;;;5073445;28;19915;-49
2023/02/17 02:57:29;;;;;;;;;;;;;;;;;;5073492;28;19908;-50
2023/02/17 02:59:55;;;;;;;;;;;;;;;;;;5074196;28;19912;-49
2023/02/17 03:02:21;;;;;;;;;;;;;;;;;;5073535;28;19912;-50
2023/02/17 03:04:47;;;;;;;;;;;;;;;;;;5073400;28;19943;-49
2023/02/17 03:07:20;;;;;;;;;;;;;;;;;;5073458;28;19909;-49
2023/02/17 03:09:45;;;;;;;;;;;;;;;;;;5073271;28;20395;-52
2023/02/17 03:12:11;;;;;;;;;;;;;;;;;;5073430;28;19909;-48
2023/02/17 03:14:37;;;;;;;;;;;;;;;;;;5073227;28;19909;-52
2023/02/17 03:17:03;;;;;;;;;;;;;;;;;;5073298;28;19916;-49
2023/02/17 03:19:29;;;;;;;;;;;;;;;;;;5071975;28;20296;-49
2023/02/17 03:21:55;;;;;;;;;;;;;;;;;;5073229;28;19912;-49
2023/02/17 03:24:21;;;;;;;;;;;;;;;;;;5085381;28;19912;-51
2023/02/17 03:26:47;;;;;;;;;;;;;;;;;;5088141;28;19931;-52
2023/02/17 03:29:13;;;;;;;;;;;;;;;;;;5072832;28;19916;-50
2023/02/17 03:31:39;;;;;;;;;;;;;;;;;;5085323;28;20010;-49
2023/02/17 03:34:05;;;;;;;;;;;;;;;;;;5091294;28;19916;-49
2023/02/17 03:36:31;;;;;;;;;;;;;;;;;;5092600;28;19920;-51
2023/02/17 03:38:57;;;;;;;;;;;;;;;;;;5091264;28;19912;-49
2023/02/17 03:41:23;;;;;;;;;;;;;;;;;;5092499;28;20002;-50
2023/02/17 03:43:48;;;;;;;;;;;;;;;;;;5086831;28;19912;-50
2023/02/17 03:46:14;;;;;;;;;;;;;;;;;;5082073;28;19916;-51
2023/02/17 03:48:40;;;;;;;;;;;;;;;;;;5079688;28;19916;-51
2023/02/17 03:51:06;;;;;;;;;;;;;;;;;;5075632;28;19918;-49
2023/02/17 03:53:32;;;;;;;;;;;;;;;;;;5075304;28;20280;-49
2023/02/17 03:55:58;;;;;;;;;;;;;;;;;;5090607;28;19912;-50
2023/02/17 03:58:24;;;;;;;;;;;;;;;;;;5091121;28;19951;-49
2023/02/17 04:00:50;;;;;;;;;;;;;;;;;;5081828;28;19960;-51
2023/02/17 04:03:16;;;;;;;;;;;;;;;;;;5089412;28;19966;-49
2023/02/17 04:05:42;;;;;;;;;;;;;;;;;;5058898;28;19982;-51
2023/02/17 04:08:08;;;;;;;;;;;;;;;;;;5070633;28;20380;-49
2023/02/17 04:10:33;;;;;;;;;;;;;;;;;;5071765;28;19966;-49
2023/02/17 04:12:59;;;;;;;;;;;;;;;;;;5072175;28;20297;-50
2023/02/17 04:15:25;;;;;;;;;;;;;;;;;;5074736;28;19994;-50
2023/02/17 04:17:51;;;;;;;;;;;;;;;;;;5074420;28;19936;-49
2023/02/17 04:20:17;;;;;;;;;;;;;;;;;;5072187;28;20270;-50
2023/02/17 04:22:45;;;;;;;;;;;;;;;;;;5071797;28;20381;-51
2023/02/17 04:25:11;;;;;;;;;;;;;;;;;;5054069;28;19919;-48
2023/02/17 04:27:36;;;;;;;;;;;;;;;;;;5071778;28;19917;-50
2023/02/17 04:30:02;;;;;;;;;;;;;;;;;;5071895;28;20320;-49
2023/02/17 04:32:28;;;;;;;;;;;;;;;;;;5091806;28;19914;-49
2023/02/17 04:34:54;;;;;;;;;;;;;;;;;;5090299;28;19912;-49
2023/02/17 04:37:20;;;;;;;;;;;;;;;;;;5086287;28;19951;-50
2023/02/17 04:39:46;;;;;;;;;;;;;;;;;;5075727;28;19948;-49
2023/02/17 04:42:12;;;;;;;;;;;;;;;;;;5081444;28;19914;-51
2023/02/17 04:44:38;;;;;;;;;;;;;;;;;;5083207;28;19908;-51
2023/02/17 04:47:04;;;;;;;;;;;;;;;;;;5075377;28;19930;-51
2023/02/17 04:49:30;;;;;;;;;;;;;;;;;;5080200;28;19916;-51
2023/02/17 04:51:56;;;;;;;;;;;;;;;;;;5090991;28;19965;-51
2023/02/17 04:54:21;;;;;;;;;;;;;;;;;;5090947;28;19953;-53
2023/02/17 04:56:47;;;;;;;;;;;;;;;;;;5075513;28;19947;-49
2023/02/17 04:59:13;;;;;;;;;;;;;;;;;;5092025;28;19955;-50
2023/02/17 05:01:39;;;;;;;;;;;;;;;;;;5071796;28;19916;-50
2023/02/17 05:04:05;;;;;;;;;;;;;;;;;;5056875;28;19913;-49
2023/02/17 05:06:31;;;;;;;;;;;;;;;;;;5051540;28;19963;-49
2023/02/17 05:08:57;;;;;;;;;;;;;;;;;;5052221;28;19960;-49
2023/02/17 05:11:23;;;;;;;;;;;;;;;;;;5051575;28;19932;-52
2023/02/17 05:13:49;;;;;;;;;;;;;;;;;;5050474;28;20447;-51
2023/02/17 05:16:15;;;;;;;;;;;;;;;;;;5051499;28;19940;-49
2023/02/17 05:18:41;;;;;;;;;;;;;;;;;;5051679;28;19923;-51
2023/02/17 05:21:07;;;;;;;;;;;;;;;;;;5051532;28;19908;-50
2023/02/17 05:23:32;;;;;;;;;;;;;;;;;;5051653;28;19916;-51
2023/02/17 05:25:58;;;;;;;;;;;;;;;;;;5051314;28;19913;-52
2023/02/17 05:28:24;;;;;;;;;;;;;;;;;;5126820;22;19924;-49
2023/02/17 05:30:50;;;;;;;;;;;;;;;;;;5112007;28;19908;-54
2023/02/17 05:33:16;;;;;;;;;;;;;;;;;;5112165;28;19908;-52
2023/02/17 05:35:42;;;;;;;;;;;;;;;;;;5111922;28;19914;-50
2023/02/17 05:38:08;;;;;;;;;;;;;;;;;;5093872;28;20085;-53
2023/02/17 05:40:34;;;;;;;;;;;;;;;;;;5112067;28;20299;-49
2023/02/17 05:43:00;;;;;;;;;;;;;;;;;;5112139;28;19908;-49
2023/02/17 05:45:26;;;;;;;;;;;;;;;;;;5111932;28;19915;-51
2023/02/17 05:47:52;;;;;;;;;;;;;;;;;;5093706;28;19943;-50
2023/02/17 05:50:17;;;;;;;;;;;;;;;;;;5112890;28;20368;-49
2023/02/17 05:52:43;;;;;;;;;;;;;;;;;;5115630;28;19908;-53
2023/02/17 05:55:09;;;;;;;;;;;;;;;;;;5115934;28;19908;-52
2023/02/17 05:57:35;;;;;;;;;;;;;;;;;;5115502;28;19908;-52
2023/02/17 06:00:01;;;;;;;;;;;;;;;;;;5115538;28;19931;-49
2023/02/17 06:02:27;;;;;;;;;;;;;;;;;;5115319;28;19998;-52
2023/02/17 06:04:53;;;;;;;;;;;;;;;;;;5115253;28;19958;-50
2023/02/17 06:07:19;;;;;;;;;;;;;;;;;;5115219;28;20265;-50
2023/02/17 06:09:45;;;;;;;;;;;;;;;;;;5115198;28;19927;-53
2023/02/17 06:12:11;;;;;;;;;;;;;;;;;;5115314;28;19996;-49
2023/02/17 06:14:37;;;;;;;;;;;;;;;;;;5115153;28;20577;-49
2023/02/17 06:17:03;;;;;;;;;;;;;;;;;;5115031;28;19994;-50
2023/02/17 06:19:29;;;;;;;;;;;;;;;;;;5115123;28;20307;-49
2023/02/17 06:21:55;;;;;;;;;;;;;;;;;;5115114;28;19915;-50
2023/02/17 06:24:21;;;;;;;;;;;;;;;;;;5114932;28;19911;-46
2023/02/17 06:26:47;;;;;;;;;;;;;;;;;;5110894;28;20383;-47
2023/02/17 06:29:13;;;;;;;;;;;;;;;;;;5107474;28;19923;-46
2023/02/17 06:31:39;;;;;;;;;;;;;;;;;;5114947;28;19908;-47
2023/02/17 06:34:05;;;;;;;;;;;;;;;;;;5114970;28;19912;-45
2023/02/17 06:36:31;;;;;;;;;;;;;;;;;;5115398;28;20256;-47
2023/02/17 06:38:57;;;;;;;;;;;;;;;;;;5115315;28;19915;-46
2023/02/17 06:41:23;;;;;;;;;;;;;;;;;;5115018;28;20320;-45
2023/02/17 06:43:49;;;;;;;;;;;;;;;;;;5114901;28;19935;-44
2023/02/17 06:46:15;;;;;;;;;;;;;;;;;;5114618;28;19908;-45
2023/02/17 06:48:41;;;;;;;;;;;;;;;;;;5114494;28;19919;-45
2023/02/17 06:51:06;;;;;;;;;;;;;;;;;;5096362;28;19931;-43
2023/02/17 06:53:32;;;;;;;;;;;;;;;;;;5114579;28;19920;-51
2023/02/17 06:55:58;;;;;;;;;;;;;;;;;;5114386;28;19911;-51
2023/02/17 06:58:24;;;;;;;;;;;;;;;;;;5114551;28;20375;-50
2023/02/17 07:00:50;;;;;;;;;;;;;;;;;;5096150;28;19908;-53
2023/02/17 07:03:16;;;;;;;;;;;;;;;;;;5114336;28;20387;-51
2023/02/17 07:05:42;;;;;;;;;;;;;;;;;;5114307;28;20283;-50
2023/02/17 07:08:08;;;;;;;;;;;;;;;;;;5114133;28;19915;-52
2023/02/17 07:10:34;;;;;;;;;;;;;;;;;;5114242;28;19908;-51
2023/02/17 07:13:00;;;;;;;;;;;;;;;;;;5114260;28;19904;-51
2023/02/17 07:15:26;;;;;;;;;;;;;;;;;;5095670;28;19915;-49
2023/02/17 07:17:52;;;;;;;;;;;;;;;;;;5114020;28;19908;-49
2023/02/17 07:20:18;;;;;;;;;;;;;;;;;;5114062;28;19914;-48
2023/02/17 07:22:44;;;;;;;;;;;;;;;;;;5114113;28;19904;-49
2023/02/17 07:25:10;;;;;;;;;;;;;;;;;;5113819;28;20268;-49
2023/02/17 07:27:36;;;;;;;;;;;;;;;;;;5095546;28;20298;-49
2023/02/17 07:30:01;;;;;;;;;;;;;;;;;;5113813;28;19911;-49
2023/02/17 07:32:27;;;;;;;;;;;;;;;;;;5113899;28;20010;-48
2023/02/17 07:34:53;;;;;;;;;;;;;;;;;;5113627;28;19954;-48
2023/02/17 07:37:20;;;;;;;;;;;;;;;;;;5113625;28;19908;-49
2023/02/17 07:39:46;;;;;;;;;;;;;;;;;;5110188;28;19912;-51
2023/02/17 07:42:12;;;;;;;;;;;;;;;;;;5110713;28;20007;-50
2023/02/17 07:44:38;;;;;;;;;;;;;;;;;;5095201;28;20542;-51
2023/02/17 07:47:06;;;;;;;;;;;;;;;;;;5112636;28;21433;-49
2023/02/17 07:49:32;;;;;;;;;;;;;;;;;;5113425;28;19915;-49
2023/02/17 07:51:58;;;;;;;;;;;;;;;;;;5113471;28;19918;-52
2023/02/17 07:54:24;;;;;;;;;;;;;;;;;;5113180;28;19908;-53
2023/02/17 07:56:50;;;;;;;;;;;;;;;;;;5112978;28;19907;-51
2023/02/17 07:59:16;;;;;;;;;;;;;;;;;;5113237;28;19907;-50
2023/02/17 08:01:41;;;;;;;;;;;;;;;;;;5113233;28;20383;-52
2023/02/17 08:04:07;;;;;;;;;;;;;;;;;;5113140;28;19908;-51
2023/02/17 08:06:33;;;;;;;;;;;;;;;;;;5113262;28;19908;-50
2023/02/17 08:14:29;;;;;;;;;;;;;;;;;;5112533;28;19953;-49
2023/02/17 08:16:55;;;;;;;;;;;;;;;;;;5113156;28;19920;-49
2023/02/17 08:19:21;;;;;;;;;;;;;;;;;;5113142;28;19908;-49
2023/02/17 08:21:46;;;;;;;;;;;;;;;;;;5104224;28;19908;-49
2023/02/17 08:24:12;;;;;;;;;;;;;;;;;;5092537;28;19958;-53
2023/02/17 08:26:38;;;;;;;;;;;;;;;;;;5092274;28;20558;-50
2023/02/17 08:29:04;;;;;;;;;;;;;;;;;;5092572;28;19919;-54
2023/02/17 08:31:30;;;;;;;;;;;;;;;;;;5092370;28;19915;-50
2023/02/17 08:33:56;;;;;;;;;;;;;;;;;;5092492;28;19914;-49
2023/02/17 08:36:25;;;;;;;;;;;;;;;;;;5092415;28;19946;-50
2023/02/17 08:38:51;;;;;;;;;;;;;;;;;;5074274;28;20352;-49
2023/02/17 08:41:17;;;;;;;;;;;;;;;;;;5092369;28;19908;-53
2023/02/17 08:43:43;;;;;;;;;;;;;;;;;;5092354;28;19908;-51
2023/02/17 08:46:09;;;;;;;;;;;;;;;;;;5092185;28;19909;-52
2023/02/17 08:48:35;;;;;;;;;;;;;;;;;;5092240;28;20348;-49
2023/02/17 08:51:01;;;;;;;;;;;;;;;;;;5092247;28;19987;-52
2023/02/17 08:53:27;;;;;;;;;;;;;;;;;;5105672;28;20006;-50
2023/02/17 08:55:53;;;;;;;;;;;;;;;;;;5112478;28;19998;-50
2023/02/17 08:58:19;;;;;;;;;;;;;;;;;;5100489;28;19919;-49
2023/02/17 09:00:45;;;;;;;;;;;;;;;;;;5092184;28;19950;-49
2023/02/17 09:03:11;;;;;;;;;;;;;;;;;;5091945;28;19912;-51
2023/02/17 09:05:37;;;;;;;;;;;;;;;;;;5092046;28;19988;-50
2023/02/17 09:08:03;;;;;;;;;;;;;;;;;;5091993;28;19966;-53
2023/02/17 09:10:29;;;;;;;;;;;;;;;;;;5092149;28;19939;-50
2023/02/17 09:12:55;;;;;;;;;;;;;;;;;;5092041;28;19915;-53
2023/02/17 09:15:21;;;;;;;;;;;;;;;;;;5092832;28;20015;-50
2023/02/17 09:17:47;;;;;;;;;;;;;;;;;;5112348;28;19908;-47
2023/02/17 09:20:13;;;;;;;;;;;;;;;;;;5094136;28;19908;-52
2023/02/17 09:22:39;;;;;;;;;;;;;;;;;;5112476;28;19918;-52
2023/02/17 09:25:05;;;;;;;;;;;;;;;;;;5112498;28;19908;-50
2023/02/17 09:27:31;;;;;;;;;;;;;;;;;;5115766;28;19972;-53
2023/02/17 09:29:57;;;;;;;;;;;;;;;;;;5116079;28;19908;-51
2023/02/17 09:32:22;;;;;;;;;;;;;;;;;;5116076;28;19953;-51
2023/02/17 09:34:51;;;;;;;;;;;;;;;;;;5115835;28;19908;-51
2023/02/17 09:37:17;;;;;;;;;;;;;;;;;;5115995;28;19915;-49
2023/02/17 09:39:43;;;;;;;;;;;;;;;;;;5115887;28;19908;-48
2023/02/17 09:42:09;;;;;;;;;;;;;;;;;;5115877;28;19908;-51
2023/02/17 09:44:35;;;;;;;;;;;;;;;;;;5115966;28;19907;-52
2023/02/17 09:47:01;;;;;;;;;;;;;;;;;;5115889;28;20331;-52
2023/02/17 09:49:27;;;;;;;;;;;;;;;;;;5115695;28;19979;-53
2023/02/17 09:51:53;;;;;;;;;;;;;;;;;;5115817;28;20325;-52
2023/02/17 09:54:19;;;;;;;;;;;;;;;;;;5115681;28;19908;-52
2023/02/17 09:56:45;;;;;;;;;;;;;;;;;;5115547;28;19934;-49
2023/02/17 09:59:11;;;;;;;;;;;;;;;;;;5115690;28;19969;-51
2023/02/17 10:01:37;;;;;;;;;;;;;;;;;;5115856;28;19998;-50
2023/02/17 10:04:03;;;;;;;;;;;;;;;;;;5115566;28;19915;-49
2023/02/17 10:06:29;;;;;;;;;;;;;;;;;;5115358;28;19915;-52
2023/02/17 10:08:55;;;;;;;;;;;;;;;;;;5097211;28;19918;-50
2023/02/17 10:11:22;;;;;;;;;;;;;;;;;;5115407;28;19908;-49
2023/02/17 10:13:47;;;;;;;;;;;;;;;;;;5115371;28;19933;-52
2023/02/17 10:16:13;;;;;;;;;;;;;;;;;;5115173;28;20381;-51
2023/02/17 10:18:39;;;;;;;;;;;;;;;;;;5115154;28;20396;-52
2023/02/17 10:21:06;;;;;;;;;;;;;;;;;;5115261;28;19908;-53
2023/02/17 10:23:32;;;;;;;;;;;;;;;;;;5115217;28;19912;-52
2023/02/17 10:25:58;;;;;;;;;;;;;;;;;;5114877;28;19915;-52
2023/02/17 10:28:23;;;;;;;;;;;;;;;;;;5114808;28;19916;-53
2023/02/17 10:30:49;;;;;;;;;;;;;;;;;;5115059;28;20296;-53
2023/02/17 10:33:15;;;;;;;;;;;;;;;;;;5115072;28;20151;-49
2023/02/17 10:35:41;;;;;;;;;;;;;;;;;;5096047;28;19908;-50
2023/02/17 10:38:07;;;;;;;;;;;;;;;;;;5114975;28;19908;-50
2023/02/17 10:40:33;;;;;;;;;;;;;;;;;;5114879;28;19988;-49
2023/02/17 10:42:59;;;;;;;;;;;;;;;;;;5114995;28;19990;-50
2023/02/17 10:45:25;;;;;;;;;;;;;;;;;;5114691;28;20007;-49
2023/02/17 10:47:51;;;;;;;;;;;;;;;;;;5096220;28;19912;-52
2023/02/17 10:50:17;;;;;;;;;;;;;;;;;;5114532;28;20330;-50
2023/02/17 10:52:43;;;;;;;;;;;;;;;;;;5114671;28;20398;-50
2023/02/17 10:55:09;;;;;;;;;;;;;;;;;;5114279;28;19954;-50
2023/02/17 10:57:35;;;;;;;;;;;;;;;;;;5114496;28;20269;-49
2023/02/17 11:00:01;;;;;;;;;;;;;;;;;;5114390;28;19915;-50
2023/02/17 11:02:27;;;;;;;;;;;;;;;;;;5114371;28;19978;-51
2023/02/17 11:04:58;;;;;;;;;;;;;;;;;;5114110;28;20010;-52
2023/02/17 11:07:24;;;;;;;;;;;;;;;;;;5114334;28;19915;-50
2023/02/17 11:09:50;;;;;;;;;;;;;;;;;;5114199;28;19908;-49
2023/02/17 11:12:16;;;;;;;;;;;;;;;;;;5113106;28;19915;-49
2023/02/17 11:14:42;;;;;;;;;;;;;;;;;;5101543;28;19916;-52
2023/02/17 11:17:26;;;;;;;;;;;18.00;47.90;;;;;;5103782;28;19995;-51
2023/02/17 11:19:52;;;;;;;;;;;;;;;;;;5094903;28;19916;-50
2023/02/17 11:22:18;;;;;;;;;;;;;;;;;;5099575;28;20265;-50
2023/02/17 11:24:44;;;;;;;;;;;;;;;;;;5112157;28;19930;-53
2023/02/17 11:27:10;;;;;;;;;;;;;;;;;;5113439;22;20461;-49
2023/02/17 11:29:36;;;;;;;;;;;;;;;;;;5091752;28;19924;-49
2023/02/17 11:32:07;;;;;;;;;;;13.60;82.40;;;;;;5073667;28;20436;-50
2023/02/17 11:34:35;;;;;;;;;;;13.50;78.20;;;;;;5093042;28;19908;-51
2023/02/17 11:37:01;;;;;;;;;;;;;;;;;;5092961;28;19947;-49
2023/02/17 11:39:27;;;;;;;;;;;13.50;78.50;;;;;;5092854;28;19950;-49
2023/02/17 11:41:52;;;;;;;;;;;13.90;76.10;;;;;;5081239;28;19938;-50
2023/02/17 11:44:22;;;;;;;;;;;14.00;76.90;;;;;;5072768;28;19917;-49
2023/02/17 11:46:48;;;;;;;;;;;;;;;;;;5082388;28;19943;-49
2023/02/17 11:49:14;;;;;;;;;;;;;;;;;;5089096;28;19958;-49
2023/02/17 11:51:58;;;;;;;;;;;13.90;75.50;;;;;;5090325;28;19908;-49
2023/02/17 11:54:33;;;;;;;;;;;14.10;72.90;;;;;;5089623;28;19920;-49
2023/02/17 11:56:58;;;;;;;;;;;13.80;73.50;;;;;;5091249;28;19909;-49
2023/02/17 11:59:34;;;;;;;;;;;13.80;75.20;;;;;;5093020;28;20426;-50
2023/02/17 12:02:00;;;;;;;;;;;;;;;;;;5088698;28;20276;-53
2023/02/17 12:04:31;;;;;;;;;;;14.10;74.30;;;;;;5074196;28;20284;-52
2023/02/17 12:06:57;;;;;;;;;;;;;;;;;;5092146;28;19909;-51
2023/02/17 12:09:23;;;;;;;;;;;;;;;;;;5072432;28;19917;-50
2023/02/17 12:11:54;;;;;;;;;;;14.30;72.10;;;;;;5082892;28;19909;-50
2023/02/17 12:14:19;;;;;;;;;;;14.40;71.70;;;;;;5092456;28;19912;-50
2023/02/17 12:16:58;;;;;;;;;;;14.30;71.70;;;;;;5091539;28;20010;-50
2023/02/17 12:19:23;;;;;;;;;;;14.70;71.00;;;;;;5087729;28;19920;-50
2023/02/17 12:22:05;;;;;;;;;;;14.80;70.00;;;;;;5056910;28;19913;-49
2023/02/17 12:24:34;;;;;;;;;;;14.70;68.40;;;;;;5072359;28;19917;-49
2023/02/17 12:27:07;;;;;;;;;;;14.60;69.00;;;;;;5080158;28;20369;-50
2023/02/17 12:29:34;;;;;;;;;;;;;;;;;;5082513;28;19916;-49
2023/02/17 12:32:05;;;;;;;;;;;14.70;69.50;;;;;;5082465;28;19921;-48
2023/02/17 12:34:33;;;;;;;;;;;15.30;67.60;;;;;;5092259;28;20387;-48
2023/02/17 12:37:00;;;;;;;;;;;15.40;68.50;;;;;;5092054;28;19912;-52
2023/02/17 12:39:34;;;;;;;;;;;15.50;66.40;;;;;;5073226;28;19912;-49
2023/02/17 12:42:06;;;;;;;;;;;15.60;65.70;;;;;;5072294;28;19919;-53
2023/02/17 12:44:41;;;;;;;;;;;15.90;63.40;;;;;;5073039;28;19958;-49
2023/02/17 12:47:07;;;;;;;;;;;;;;;;;;5075782;28;19947;-50
2023/02/17 12:49:33;;;;;;;;;;;;;;;;;;5088186;28;20014;-52
2023/02/17 12:52:07;;;;;;;;;;;16.10;63.40;;;;;;5075573;28;19938;-49
2023/02/17 12:54:33;;;;;;;;;;;;;;;;;;5073117;28;20430;-52
2023/02/17 12:56:59;;;;;;;;;;;;;;;;;;5072184;28;19915;-50
2023/02/17 12:59:25;;;;;;;;;;;;;;;;;;5091823;28;19965;-49
2023/02/17 13:01:51;;;;;;;;;;;;;;;;;;5063475;28;19913;-49
2023/02/17 13:04:17;;;;;;;;;;;;;;;;;;5093864;28;19912;-50
2023/02/17 13:06:43;;;;;;;;;;;;;;;;;;5096318;28;20364;-49
2023/02/17 13:09:09;;;;;;;;;;;;;;;;;;5096132;28;19958;-49
2023/02/17 13:11:35;;;;;;;;;;;;;;;;;;5095798;28;20299;-49
2023/02/17 13:14:19;;;;;;;;;;;16.70;62.10;;;;;;5095930;28;19931;-50
2023/02/17 13:16:44;;;;;;;;;;;18.90;56.10;;;;;;5085541;28;19972;-51
2023/02/17 13:19:13;;;;;;;;;;;19.40;54.90;;;;;;5071167;28;20419;-51
2023/02/17 13:21:50;;;;;;;;;;;19.20;53.50;;;;;;5078740;28;20399;-50
2023/02/17 13:24:29;;;;;;;;;;;19.40;55.40;;;;;;5096195;28;20034;-49
2023/02/17 13:26:55;;;;;;;;;;;19.10;54.10;;;;;;5095614;28;19966;-49
2023/02/17 13:29:21;;;;;;;;;;;;;;;;;;5095833;28;20418;-49
2023/02/17 13:31:47;;;;;;;;;;;;;;;;;;5093888;28;20319;-52
2023/02/17 13:34:13;;;;;;;;;;;;;;;;;;5096053;28;19944;-49
2023/02/17 13:36:38;;;;;;;;;;;19.20;54.90;;;;;;5095377;28;20465;-51
2023/02/17 13:39:08;;;;;;;;;;;19.50;52.00;;;;;;5088171;28;20003;-50
2023/02/17 13:41:44;;;;;;;;;;;19.20;53.90;;;;;;5075472;28;20331;-49
2023/02/17 13:44:23;;;;;;;;;;;19.40;53.90;;;;;;5075373;28;19908;-51
2023/02/17 13:46:49;;;;;;;;;;;;;;;;;;5089632;28;20019;-49
2023/02/17 13:49:19;;;;;;;;;;;19.00;53.80;;;;;;5095088;28;20472;-49
2023/02/17 13:51:45;;;;;;;;;;;18.90;54.10;;;;;;5095331;28;19930;-49
2023/02/17 13:54:11;;;;;;;;;;;18.80;54.00;;;;;;5095371;28;20392;-51
2023/02/17 13:56:38;;;;;;;;;;;19.00;54.60;;;;;;5095291;28;19955;-49
2023/02/17 13:59:10;;;;;;;;;;;19.70;54.30;;;;;;5093765;28;19912;-49
2023/02/17 14:01:39;;;;;;;;;;;20.00;52.30;;;;;;5080065;28;19951;-49
2023/02/17 14:04:16;;;;;;;;;;;19.80;52.70;;;;;;5074926;28;19951;-49
2023/02/17 14:06:42;;;;;;;;;;;19.50;54.00;;;;;;5074637;28;19958;-51
2023/02/17 14:09:26;;;;;;;;;;;20.00;53.20;;;;;;5074413;28;19920;-50
2023/02/17 14:11:52;;;;;;;;;;;;;;;;;;5091756;28;19949;-48
2023/02/17 14:14:18;;;;;;;;;;;;;;;;;;5094311;28;19931;-49
2023/02/17 14:16:44;;;;;;;;;;;;;;;;;;5083680;28;19913;-50
2023/02/17 14:19:11;;;;;;;;;;;;;;;;;;5084207;28;19912;-50
